Terminal Aerodrome Forecast
Issued by NWS

Home | Current Version | Previous Version | Text Only | Print | Product List | Glossary On
Versions: 1 2 3 4 5 6 7 8 9 10 11 12 13 14 15
000
FTAK31 PAJN 281120
TAFAYA
TAF
PAYA 281120Z 2812/2912 VRB02KT P6SM SKC
     FM281700 29006KT P6SM SKC
     FM282200 30010G16KT P6SM SKC
     FM290600 VRB03KT P6SM SCT080
      AMD LTD TO CLD VIS AND WIND 2901/2909=

USA.gov is the U.S. government's official web portal to all federal, state and local government web resources and services.